sensor_id;sensor_type;location;lat;lon;timestamp;pressure;altitude;pressure_sealevel;temperature;humidity
11347;BME280;5728;42.722;23.258;2023-04-03T00:00:39;94141.81;;;9.46;72.56
11347;BME280;5728;42.722;23.258;2023-04-03T00:03:05;94139.91;;;9.13;71.69
11347;BME280;5728;42.722;23.258;2023-04-03T00:05:32;94146.16;;;8.57;73.40
11347;BME280;5728;42.722;23.258;2023-04-03T00:07:59;94144.00;;;8.31;75.05
11347;BME280;5728;42.722;23.258;2023-04-03T00:10:28;94135.28;;;8.40;75.03
11347;BME280;5728;42.722;23.258;2023-04-03T00:12:55;94136.00;;;8.48;74.69
11347;BME280;5728;42.722;23.258;2023-04-03T00:15:22;94125.91;;;8.80;74.43
11347;BME280;5728;42.722;23.258;2023-04-03T00:17:49;94128.00;;;9.04;74.31
11347;BME280;5728;42.722;23.258;2023-04-03T00:20:16;94128.19;;;9.38;74.05
11347;BME280;5728;42.722;23.258;2023-04-03T00:22:42;94122.03;;;9.43;74.00
11347;BME280;5728;42.722;23.258;2023-04-03T00:25:10;94130.50;;;9.51;73.73
11347;BME280;5728;42.722;23.258;2023-04-03T00:27:38;94126.19;;;9.50;72.24
11347;BME280;5728;42.722;23.258;2023-04-03T00:30:08;94133.31;;;9.39;72.67
11347;BME280;5728;42.722;23.258;2023-04-03T00:32:35;94131.19;;;9.17;72.85
11347;BME280;5728;42.722;23.258;2023-04-03T00:35:02;94128.41;;;8.86;73.72
11347;BME280;5728;42.722;23.258;2023-04-03T00:37:28;94131.59;;;8.97;73.00
11347;BME280;5728;42.722;23.258;2023-04-03T00:39:56;94137.38;;;9.11;75.14
11347;BME280;5728;42.722;23.258;2023-04-03T00:42:22;94130.34;;;9.18;74.35
11347;BME280;5728;42.722;23.258;2023-04-03T00:45:24;94138.91;;;9.20;73.45
11347;BME280;5728;42.722;23.258;2023-04-03T00:47:51;94146.72;;;9.18;73.32
11347;BME280;5728;42.722;23.258;2023-04-03T00:50:18;94149.25;;;9.21;72.38
11347;BME280;5728;42.722;23.258;2023-04-03T00:52:45;94131.94;;;8.79;74.85
11347;BME280;5728;42.722;23.258;2023-04-03T00:55:14;94138.91;;;9.21;72.85
11347;BME280;5728;42.722;23.258;2023-04-03T00:57:42;94142.25;;;9.26;72.33
11347;BME280;5728;42.722;23.258;2023-04-03T01:00:11;94141.69;;;9.09;72.45
11347;BME280;5728;42.722;23.258;2023-04-03T01:02:40;94142.09;;;9.34;73.80
11347;BME280;5728;42.722;23.258;2023-04-03T01:05:07;94142.72;;;9.43;73.06
11347;BME280;5728;42.722;23.258;2023-04-03T01:07:34;94146.03;;;9.09;73.34
11347;BME280;5728;42.722;23.258;2023-04-03T01:10:06;94151.81;;;8.77;74.32
11347;BME280;5728;42.722;23.258;2023-04-03T01:12:36;94144.75;;;8.41;75.68
11347;BME280;5728;42.722;23.258;2023-04-03T01:15:05;94138.69;;;8.42;76.62
11347;BME280;5728;42.722;23.258;2023-04-03T01:17:35;94143.94;;;8.37;77.11
11347;BME280;5728;42.722;23.258;2023-04-03T01:23:22;94139.94;;;8.67;75.40
11347;BME280;5728;42.722;23.258;2023-04-03T01:25:54;94146.78;;;8.69;75.52
11347;BME280;5728;42.722;23.258;2023-04-03T01:28:23;94141.44;;;8.80;76.16
11347;BME280;5728;42.722;23.258;2023-04-03T01:30:53;94144.72;;;8.88;74.31
11347;BME280;5728;42.722;23.258;2023-04-03T01:33:23;94154.97;;;8.92;75.26
11347;BME280;5728;42.722;23.258;2023-04-03T01:35:50;94149.84;;;8.91;74.71
11347;BME280;5728;42.722;23.258;2023-04-03T01:38:17;94145.53;;;8.90;74.22
11347;BME280;5728;42.722;23.258;2023-04-03T01:40:44;94148.66;;;9.07;73.42
11347;BME280;5728;42.722;23.258;2023-04-03T01:43:10;94141.25;;;8.89;75.38
11347;BME280;5728;42.722;23.258;2023-04-03T01:45:37;94138.34;;;8.60;75.88
11347;BME280;5728;42.722;23.258;2023-04-03T01:48:04;94143.47;;;8.63;74.82
11347;BME280;5728;42.722;23.258;2023-04-03T01:50:32;94142.06;;;8.45;75.29
11347;BME280;5728;42.722;23.258;2023-04-03T01:52:59;94137.69;;;8.49;76.01
11347;BME280;5728;42.722;23.258;2023-04-03T01:55:26;94136.91;;;8.45;76.27
11347;BME280;5728;42.722;23.258;2023-04-03T01:57:52;94141.50;;;8.28;76.99
11347;BME280;5728;42.722;23.258;2023-04-03T02:00:20;94138.59;;;8.46;76.18
11347;BME280;5728;42.722;23.258;2023-04-03T02:02:46;94138.72;;;8.39;75.24
11347;BME280;5728;42.722;23.258;2023-04-03T02:05:13;94141.91;;;8.54;76.26
11347;BME280;5728;42.722;23.258;2023-04-03T02:07:41;94143.47;;;8.63;76.04
11347;BME280;5728;42.722;23.258;2023-04-03T02:10:09;94132.72;;;8.84;76.41
11347;BME280;5728;42.722;23.258;2023-04-03T02:12:35;94126.16;;;8.66;76.03
11347;BME280;5728;42.722;23.258;2023-04-03T02:15:03;94133.00;;;8.69;75.35
11347;BME280;5728;42.722;23.258;2023-04-03T02:17:30;94140.47;;;8.84;75.35
11347;BME280;5728;42.722;23.258;2023-04-03T02:19:56;94136.28;;;8.78;75.71
11347;BME280;5728;42.722;23.258;2023-04-03T02:22:23;94129.56;;;8.70;75.11
11347;BME280;5728;42.722;23.258;2023-04-03T02:24:51;94124.88;;;8.43;74.78
11347;BME280;5728;42.722;23.258;2023-04-03T02:27:18;94124.69;;;8.01;76.34
11347;BME280;5728;42.722;23.258;2023-04-03T02:29:44;94126.88;;;7.72;77.05
11347;BME280;5728;42.722;23.258;2023-04-03T02:32:11;94113.19;;;7.06;78.84
11347;BME280;5728;42.722;23.258;2023-04-03T02:34:38;94120.69;;;6.54;82.03
11347;BME280;5728;42.722;23.258;2023-04-03T02:37:05;94116.63;;;6.30;84.95
11347;BME280;5728;42.722;23.258;2023-04-03T02:39:31;94111.47;;;6.30;83.65
11347;BME280;5728;42.722;23.258;2023-04-03T02:41:59;94124.00;;;6.64;83.10
11347;BME280;5728;42.722;23.258;2023-04-03T02:44:26;94122.41;;;6.54;83.07
11347;BME280;5728;42.722;23.258;2023-04-03T02:46:53;94122.63;;;6.34;83.78
11347;BME280;5728;42.722;23.258;2023-04-03T02:49:20;94121.88;;;6.21;85.08
11347;BME280;5728;42.722;23.258;2023-04-03T02:51:46;94119.75;;;6.61;85.34
11347;BME280;5728;42.722;23.258;2023-04-03T02:54:13;94107.66;;;6.66;82.76
11347;BME280;5728;42.722;23.258;2023-04-03T02:56:40;94110.72;;;6.19;84.58
11347;BME280;5728;42.722;23.258;2023-04-03T02:59:08;94116.69;;;6.23;84.37
11347;BME280;5728;42.722;23.258;2023-04-03T03:01:35;94111.34;;;6.42;83.80
11347;BME280;5728;42.722;23.258;2023-04-03T03:04:02;94108.16;;;6.18;85.08
11347;BME280;5728;42.722;23.258;2023-04-03T03:06:28;94107.00;;;6.48;84.68
11347;BME280;5728;42.722;23.258;2023-04-03T03:08:55;94104.28;;;6.61;84.36
11347;BME280;5728;42.722;23.258;2023-04-03T03:11:22;94103.97;;;6.88;84.76
11347;BME280;5728;42.722;23.258;2023-04-03T03:13:49;94104.63;;;7.04;83.79
11347;BME280;5728;42.722;23.258;2023-04-03T03:16:17;94100.38;;;7.01;81.90
11347;BME280;5728;42.722;23.258;2023-04-03T03:18:43;94109.59;;;7.19;82.39
11347;BME280;5728;42.722;23.258;2023-04-03T03:21:11;94101.84;;;7.18;81.70
11347;BME280;5728;42.722;23.258;2023-04-03T03:23:37;94105.38;;;7.11;82.69
11347;BME280;5728;42.722;23.258;2023-04-03T03:26:06;94100.91;;;7.23;82.74
11347;BME280;5728;42.722;23.258;2023-04-03T03:28:35;94105.19;;;7.26;82.40
11347;BME280;5728;42.722;23.258;2023-04-03T03:31:03;94110.06;;;7.47;81.73
11347;BME280;5728;42.722;23.258;2023-04-03T03:33:32;94113.63;;;7.37;81.51
11347;BME280;5728;42.722;23.258;2023-04-03T03:35:59;94112.06;;;7.27;80.97
11347;BME280;5728;42.722;23.258;2023-04-03T03:38:26;94109.59;;;7.18;80.91
11347;BME280;5728;42.722;23.258;2023-04-03T03:40:53;94107.72;;;7.29;80.14
11347;BME280;5728;42.722;23.258;2023-04-03T03:43:20;94104.13;;;7.40;80.26
11347;BME280;5728;42.722;23.258;2023-04-03T03:45:50;94108.44;;;7.40;79.80
11347;BME280;5728;42.722;23.258;2023-04-03T03:48:17;94113.75;;;7.29;80.00
11347;BME280;5728;42.722;23.258;2023-04-03T03:50:45;94107.44;;;7.50;80.67
11347;BME280;5728;42.722;23.258;2023-04-03T03:53:12;94111.75;;;7.48;79.97
11347;BME280;5728;42.722;23.258;2023-04-03T03:55:39;94106.69;;;7.42;80.77
11347;BME280;5728;42.722;23.258;2023-04-03T03:58:05;94115.53;;;7.23;81.14
11347;BME280;5728;42.722;23.258;2023-04-03T04:00:32;94124.34;;;7.06;81.16
11347;BME280;5728;42.722;23.258;2023-04-03T04:02:59;94124.22;;;7.16;81.59
11347;BME280;5728;42.722;23.258;2023-04-03T04:05:25;94119.75;;;7.30;81.65
11347;BME280;5728;42.722;23.258;2023-04-03T04:07:54;94111.41;;;7.11;80.85
11347;BME280;5728;42.722;23.258;2023-04-03T04:10:20;94106.91;;;7.27;80.93
11347;BME280;5728;42.722;23.258;2023-04-03T04:12:47;94115.41;;;7.35;80.66
11347;BME280;5728;42.722;23.258;2023-04-03T04:15:16;94108.72;;;7.19;80.72
11347;BME280;5728;42.722;23.258;2023-04-03T04:17:43;94111.22;;;7.23;80.85
11347;BME280;5728;42.722;23.258;2023-04-03T04:20:10;94119.69;;;7.33;82.65
11347;BME280;5728;42.722;23.258;2023-04-03T04:22:37;94134.66;;;7.06;80.13
11347;BME280;5728;42.722;23.258;2023-04-03T04:25:06;94137.03;;;6.50;82.19
11347;BME280;5728;42.722;23.258;2023-04-03T04:27:33;94133.31;;;6.75;83.43
11347;BME280;5728;42.722;23.258;2023-04-03T04:30:02;94134.91;;;6.85;85.25
11347;BME280;5728;42.722;23.258;2023-04-03T04:32:30;94128.91;;;6.86;85.63
11347;BME280;5728;42.722;23.258;2023-04-03T04:34:56;94121.66;;;7.16;84.80
11347;BME280;5728;42.722;23.258;2023-04-03T04:37:23;94129.69;;;7.55;83.47
11347;BME280;5728;42.722;23.258;2023-04-03T04:39:50;94127.00;;;7.64;82.46
11347;BME280;5728;42.722;23.258;2023-04-03T04:42:18;94138.84;;;7.76;82.39
11347;BME280;5728;42.722;23.258;2023-04-03T04:44:44;94146.69;;;7.70;81.46
11347;BME280;5728;42.722;23.258;2023-04-03T04:47:11;94143.44;;;7.57;81.08
11347;BME280;5728;42.722;23.258;2023-04-03T04:49:38;94143.03;;;7.24;80.38
11347;BME280;5728;42.722;23.258;2023-04-03T04:52:05;94142.00;;;7.37;80.88
11347;BME280;5728;42.722;23.258;2023-04-03T04:54:31;94151.72;;;7.17;83.16
11347;BME280;5728;42.722;23.258;2023-04-03T04:56:58;94163.19;;;7.60;82.27
11347;BME280;5728;42.722;23.258;2023-04-03T04:59:26;94164.09;;;7.57;83.48
11347;BME280;5728;42.722;23.258;2023-04-03T05:01:53;94165.84;;;7.54;83.34
11347;BME280;5728;42.722;23.258;2023-04-03T05:04:20;94163.09;;;7.66;82.76
11347;BME280;5728;42.722;23.258;2023-04-03T05:06:46;94162.81;;;7.84;82.25
11347;BME280;5728;42.722;23.258;2023-04-03T05:09:13;94168.03;;;7.81;81.14
11347;BME280;5728;42.722;23.258;2023-04-03T05:11:41;94165.56;;;7.73;79.90
11347;BME280;5728;42.722;23.258;2023-04-03T05:14:08;94172.56;;;7.64;80.75
11347;BME280;5728;42.722;23.258;2023-04-03T05:16:36;94170.84;;;7.64;80.04
11347;BME280;5728;42.722;23.258;2023-04-03T05:19:03;94179.22;;;7.82;79.16
11347;BME280;5728;42.722;23.258;2023-04-03T05:21:30;94185.03;;;7.94;79.22
11347;BME280;5728;42.722;23.258;2023-04-03T05:23:58;94181.53;;;8.00;77.66
11347;BME280;5728;42.722;23.258;2023-04-03T05:26:28;94185.13;;;7.90;80.53
11347;BME280;5728;42.722;23.258;2023-04-03T05:28:55;94185.88;;;7.96;80.85
11347;BME280;5728;42.722;23.258;2023-04-03T05:31:22;94191.84;;;7.98;80.21
11347;BME280;5728;42.722;23.258;2023-04-03T05:33:50;94186.25;;;8.28;78.00
11347;BME280;5728;42.722;23.258;2023-04-03T05:36:17;94180.13;;;8.34;77.48
11347;BME280;5728;42.722;23.258;2023-04-03T05:38:44;94179.41;;;8.24;77.49
11347;BME280;5728;42.722;23.258;2023-04-03T05:41:11;94177.75;;;8.20;77.15
11347;BME280;5728;42.722;23.258;2023-04-03T05:43:37;94174.94;;;8.37;77.00
11347;BME280;5728;42.722;23.258;2023-04-03T05:46:09;94180.69;;;8.51;76.33
11347;BME280;5728;42.722;23.258;2023-04-03T05:48:36;94176.16;;;8.64;75.85
11347;BME280;5728;42.722;23.258;2023-04-03T05:51:06;94174.44;;;8.64;75.56
11347;BME280;5728;42.722;23.258;2023-04-03T05:53:35;94168.50;;;8.61;75.37
11347;BME280;5728;42.722;23.258;2023-04-03T05:56:02;94165.63;;;8.25;76.53
11347;BME280;5728;42.722;23.258;2023-04-03T05:58:29;94183.63;;;8.33;76.02
11347;BME280;5728;42.722;23.258;2023-04-03T06:00:56;94175.53;;;8.53;76.23
11347;BME280;5728;42.722;23.258;2023-04-03T06:03:23;94168.53;;;8.04;76.90
11347;BME280;5728;42.722;23.258;2023-04-03T06:05:50;94162.06;;;7.78;78.64
11347;BME280;5728;42.722;23.258;2023-04-03T06:08:18;94172.13;;;7.94;78.70
11347;BME280;5728;42.722;23.258;2023-04-03T06:10:45;94169.50;;;7.97;78.05
11347;BME280;5728;42.722;23.258;2023-04-03T06:13:12;94157.09;;;8.20;77.40
11347;BME280;5728;42.722;23.258;2023-04-03T06:15:39;94153.81;;;8.09;76.90
11347;BME280;5728;42.722;23.258;2023-04-03T06:18:06;94133.94;;;8.14;77.87
11347;BME280;5728;42.722;23.258;2023-04-03T06:20:33;94137.75;;;7.92;78.54
11347;BME280;5728;42.722;23.258;2023-04-03T06:23:00;94137.44;;;7.57;79.44
11347;BME280;5728;42.722;23.258;2023-04-03T06:25:28;94142.66;;;7.51;79.94
11347;BME280;5728;42.722;23.258;2023-04-03T06:27:57;94142.88;;;7.36;81.38
11347;BME280;5728;42.722;23.258;2023-04-03T06:30:23;94143.91;;;7.23;81.04
11347;BME280;5728;42.722;23.258;2023-04-03T06:32:50;94153.69;;;7.60;81.50
11347;BME280;5728;42.722;23.258;2023-04-03T06:35:17;94148.75;;;7.45;81.42
11347;BME280;5728;42.722;23.258;2023-04-03T06:37:44;94154.94;;;7.93;80.41
11347;BME280;5728;42.722;23.258;2023-04-03T06:40:15;94157.97;;;8.19;78.98
11347;BME280;5728;42.722;23.258;2023-04-03T06:42:45;94151.13;;;8.17;78.71
11347;BME280;5728;42.722;23.258;2023-04-03T06:45:12;94164.78;;;8.23;78.86
11347;BME280;5728;42.722;23.258;2023-04-03T06:47:39;94175.00;;;8.31;79.09
11347;BME280;5728;42.722;23.258;2023-04-03T06:50:06;94151.53;;;7.91;79.86
11347;BME280;5728;42.722;23.258;2023-04-03T06:52:34;94175.09;;;8.23;79.25
11347;BME280;5728;42.722;23.258;2023-04-03T06:55:01;94159.78;;;8.65;78.36
11347;BME280;5728;42.722;23.258;2023-04-03T06:57:28;94157.78;;;8.80;77.08
11347;BME280;5728;42.722;23.258;2023-04-03T06:59:56;94164.88;;;8.69;77.69
11347;BME280;5728;42.722;23.258;2023-04-03T07:02:23;94166.03;;;8.99;77.50
11347;BME280;5728;42.722;23.258;2023-04-03T07:04:49;94156.41;;;9.07;76.84
11347;BME280;5728;42.722;23.258;2023-04-03T07:07:16;94172.88;;;9.03;76.12
11347;BME280;5728;42.722;23.258;2023-04-03T07:09:43;94167.09;;;8.90;77.52
11347;BME280;5728;42.722;23.258;2023-04-03T07:12:12;94168.59;;;8.55;78.38
11347;BME280;5728;42.722;23.258;2023-04-03T07:14:39;94164.19;;;8.06;80.00
11347;BME280;5728;42.722;23.258;2023-04-03T07:17:07;94152.09;;;8.63;79.51
11347;BME280;5728;42.722;23.258;2023-04-03T07:19:33;94175.97;;;9.20;76.17
11347;BME280;5728;42.722;23.258;2023-04-03T07:22:00;94163.09;;;9.58;74.50
11347;BME280;5728;42.722;23.258;2023-04-03T07:24:28;94153.13;;;9.40;74.63
11347;BME280;5728;42.722;23.258;2023-04-03T07:26:55;94139.47;;;9.74;73.54
11347;BME280;5728;42.722;23.258;2023-04-03T07:29:22;94149.84;;;9.34;73.33
11347;BME280;5728;42.722;23.258;2023-04-03T07:31:49;94150.88;;;9.67;73.95
11347;BME280;5728;42.722;23.258;2023-04-03T07:34:17;94140.81;;;9.90;73.27
11347;BME280;5728;42.722;23.258;2023-04-03T07:36:44;94139.75;;;10.37;71.35
11347;BME280;5728;42.722;23.258;2023-04-03T07:39:11;94139.31;;;10.18;70.18
11347;BME280;5728;42.722;23.258;2023-04-03T07:41:38;94133.94;;;10.61;70.92
11347;BME280;5728;42.722;23.258;2023-04-03T07:44:05;94122.16;;;11.12;68.77
11347;BME280;5728;42.722;23.258;2023-04-03T07:46:34;94116.47;;;11.58;66.54
11347;BME280;5728;42.722;23.258;2023-04-03T07:49:01;94112.41;;;12.06;65.07
11347;BME280;5728;42.722;23.258;2023-04-03T07:51:30;94112.28;;;12.11;63.64
11347;BME280;5728;42.722;23.258;2023-04-03T07:53:56;94112.09;;;12.43;63.21
11347;BME280;5728;42.722;23.258;2023-04-03T07:56:24;94115.06;;;12.84;61.54
11347;BME280;5728;42.722;23.258;2023-04-03T07:58:51;94117.53;;;12.62;60.92
11347;BME280;5728;42.722;23.258;2023-04-03T08:01:18;94118.13;;;12.70;62.11
11347;BME280;5728;42.722;23.258;2023-04-03T08:03:46;94110.31;;;12.44;61.61
11347;BME280;5728;42.722;23.258;2023-04-03T08:06:12;94110.78;;;12.56;62.15
11347;BME280;5728;42.722;23.258;2023-04-03T08:08:41;94100.97;;;12.89;61.84
11347;BME280;5728;42.722;23.258;2023-04-03T08:11:09;94095.94;;;13.09;60.89
11347;BME280;5728;42.722;23.258;2023-04-03T08:13:36;94093.81;;;13.20;61.13
11347;BME280;5728;42.722;23.258;2023-04-03T08:16:11;94098.38;;;12.89;60.95
11347;BME280;5728;42.722;23.258;2023-04-03T08:18:38;94103.00;;;12.81;61.63
11347;BME280;5728;42.722;23.258;2023-04-03T08:21:06;94096.63;;;12.65;61.76
11347;BME280;5728;42.722;23.258;2023-04-03T08:23:33;94096.28;;;12.74;61.69
11347;BME280;5728;42.722;23.258;2023-04-03T08:26:07;94098.69;;;12.80;61.53
11347;BME280;5728;42.722;23.258;2023-04-03T08:28:34;94102.41;;;12.98;60.96
11347;BME280;5728;42.722;23.258;2023-04-03T08:31:04;94104.41;;;13.16;60.58
11347;BME280;5728;42.722;23.258;2023-04-03T08:33:32;94092.59;;;12.30;62.28
11347;BME280;5728;42.722;23.258;2023-04-03T08:36:01;94094.97;;;13.12;61.23
11347;BME280;5728;42.722;23.258;2023-04-03T08:38:28;94096.06;;;13.06;60.48
11347;BME280;5728;42.722;23.258;2023-04-03T08:41:12;94082.53;;;12.95;60.65
11347;BME280;5728;42.722;23.258;2023-04-03T08:43:54;94081.53;;;13.47;59.60
11347;BME280;5728;42.722;23.258;2023-04-03T08:46:25;94079.78;;;13.48;58.60
11347;BME280;5728;42.722;23.258;2023-04-03T08:48:58;94078.97;;;13.46;58.51
11347;BME280;5728;42.722;23.258;2023-04-03T08:51:26;94073.97;;;13.63;58.51
11347;BME280;5728;42.722;23.258;2023-04-03T08:53:57;94073.41;;;13.55;57.74
11347;BME280;5728;42.722;23.258;2023-04-03T08:56:27;94070.06;;;13.74;57.29
11347;BME280;5728;42.722;23.258;2023-04-03T08:58:56;94066.44;;;13.78;57.95
11347;BME280;5728;42.722;23.258;2023-04-03T09:01:26;94058.13;;;13.69;57.77
11347;BME280;5728;42.722;23.258;2023-04-03T09:03:53;94055.75;;;13.63;58.17
11347;BME280;5728;42.722;23.258;2023-04-03T09:06:22;94054.47;;;13.73;57.95
11347;BME280;5728;42.722;23.258;2023-04-03T09:08:53;94050.72;;;13.58;57.89
11347;BME280;5728;42.722;23.258;2023-04-03T09:11:25;94057.03;;;13.74;57.50
11347;BME280;5728;42.722;23.258;2023-04-03T09:13:59;94046.66;;;14.16;56.80
11347;BME280;5728;42.722;23.258;2023-04-03T09:16:36;94043.97;;;14.18;56.10
11347;BME280;5728;42.722;23.258;2023-04-03T09:19:15;94041.84;;;14.49;55.81
11347;BME280;5728;42.722;23.258;2023-04-03T09:21:45;94035.25;;;14.60;54.95
11347;BME280;5728;42.722;23.258;2023-04-03T09:24:14;94035.13;;;14.84;54.89
11347;BME280;5728;42.722;23.258;2023-04-03T09:26:44;94034.06;;;15.08;53.79
11347;BME280;5728;42.722;23.258;2023-04-03T09:29:18;94024.00;;;14.99;53.07
11347;BME280;5728;42.722;23.258;2023-04-03T09:31:48;94021.53;;;14.96;53.78
11347;BME280;5728;42.722;23.258;2023-04-03T09:34:20;94018.09;;;15.14;53.25
11347;BME280;5728;42.722;23.258;2023-04-03T09:36:50;94022.44;;;15.15;53.49
11347;BME280;5728;42.722;23.258;2023-04-03T09:39:20;94018.53;;;15.23;52.84
11347;BME280;5728;42.722;23.258;2023-04-03T09:42:00;94018.50;;;15.62;52.66
11347;BME280;5728;42.722;23.258;2023-04-03T09:44:30;94018.75;;;15.58;51.74
11347;BME280;5728;42.722;23.258;2023-04-03T09:46:58;94008.00;;;15.45;51.90
11347;BME280;5728;42.722;23.258;2023-04-03T09:49:25;94012.03;;;15.52;52.65
11347;BME280;5728;42.722;23.258;2023-04-03T09:51:52;94001.59;;;15.88;51.93
11347;BME280;5728;42.722;23.258;2023-04-03T09:54:40;94001.53;;;15.89;51.32
11347;BME280;5728;42.722;23.258;2023-04-03T09:57:09;93996.78;;;15.98;51.12
11347;BME280;5728;42.722;23.258;2023-04-03T09:59:43;93999.88;;;16.06;50.38
11347;BME280;5728;42.722;23.258;2023-04-03T10:02:35;94001.78;;;16.02;50.89
11347;BME280;5728;42.722;23.258;2023-04-03T10:05:04;93995.25;;;15.75;51.71
11347;BME280;5728;42.722;23.258;2023-04-03T10:07:34;93985.19;;;16.20;51.04
11347;BME280;5728;42.722;23.258;2023-04-03T10:10:16;93988.91;;;16.33;54.04
11347;BME280;5728;42.722;23.258;2023-04-03T10:12:43;93980.97;;;15.82;52.17
11347;BME280;5728;42.722;23.258;2023-04-03T10:15:15;93985.59;;;15.58;52.73
11347;BME280;5728;42.722;23.258;2023-04-03T10:17:53;93980.81;;;15.49;52.61
11347;BME280;5728;42.722;23.258;2023-04-03T10:20:31;93987.03;;;15.47;52.98
11347;BME280;5728;42.722;23.258;2023-04-03T10:23:09;93977.88;;;15.37;53.33
11347;BME280;5728;42.722;23.258;2023-04-03T10:25:43;93970.41;;;15.29;53.68
11347;BME280;5728;42.722;23.258;2023-04-03T10:28:19;93978.59;;;15.40;53.38
11347;BME280;5728;42.722;23.258;2023-04-03T10:30:55;93967.88;;;15.27;52.82
11347;BME280;5728;42.722;23.258;2023-04-03T10:33:41;93962.41;;;14.95;53.14
11347;BME280;5728;42.722;23.258;2023-04-03T10:36:19;93957.84;;;15.00;53.08
11347;BME280;5728;42.722;23.258;2023-04-03T10:38:54;93960.19;;;14.86;53.39
11347;BME280;5728;42.722;23.258;2023-04-03T10:41:34;93952.28;;;14.68;53.38
11347;BME280;5728;42.722;23.258;2023-04-03T10:44:15;93953.84;;;14.73;54.22
11347;BME280;5728;42.722;23.258;2023-04-03T10:46:49;93945.38;;;14.67;54.25
11347;BME280;5728;42.722;23.258;2023-04-03T10:49:25;93956.94;;;14.81;53.98
11347;BME280;5728;42.722;23.258;2023-04-03T10:52:01;93945.78;;;14.58;54.63
11347;BME280;5728;42.722;23.258;2023-04-03T10:54:35;93939.31;;;14.27;54.64
11347;BME280;5728;42.722;23.258;2023-04-03T10:57:06;93943.16;;;14.18;55.27
11347;BME280;5728;42.722;23.258;2023-04-03T10:59:37;93943.69;;;14.26;54.19
11347;BME280;5728;42.722;23.258;2023-04-03T11:02:14;93942.19;;;14.21;55.06
11347;BME280;5728;42.722;23.258;2023-04-03T11:04:48;93947.72;;;14.13;55.37
11347;BME280;5728;42.722;23.258;2023-04-03T11:07:20;93942.78;;;14.07;55.64
11347;BME280;5728;42.722;23.258;2023-04-03T11:09:50;93943.59;;;14.28;55.96
11347;BME280;5728;42.722;23.258;2023-04-03T11:12:23;93945.88;;;14.15;56.76
11347;BME280;5728;42.722;23.258;2023-04-03T11:14:52;93947.47;;;14.19;57.90
11347;BME280;5728;42.722;23.258;2023-04-03T11:17:27;93952.28;;;14.28;58.42
11347;BME280;5728;42.722;23.258;2023-04-03T11:19:59;93961.28;;;14.21;59.46
11347;BME280;5728;42.722;23.258;2023-04-03T11:22:31;93952.50;;;13.82;61.75
11347;BME280;5728;42.722;23.258;2023-04-03T11:25:04;93943.31;;;13.73;62.25
11347;BME280;5728;42.722;23.258;2023-04-03T11:27:40;93951.56;;;13.41;64.15
11347;BME280;5728;42.722;23.258;2023-04-03T11:30:14;93947.81;;;13.26;64.39
11347;BME280;5728;42.722;23.258;2023-04-03T11:33:21;93951.19;;;13.28;66.47
11347;BME280;5728;42.722;23.258;2023-04-03T11:35:52;93955.47;;;13.08;66.33
11347;BME280;5728;42.722;23.258;2023-04-03T11:38:23;93954.94;;;12.75;68.20
11347;BME280;5728;42.722;23.258;2023-04-03T11:40:54;93953.22;;;12.74;69.55
11347;BME280;5728;42.722;23.258;2023-04-03T11:43:24;93955.25;;;12.89;70.58
11347;BME280;5728;42.722;23.258;2023-04-03T11:45:57;93957.59;;;12.73;71.11
11347;BME280;5728;42.722;23.258;2023-04-03T11:48:47;93957.13;;;12.62;71.66
11347;BME280;5728;42.722;23.258;2023-04-03T11:51:44;93960.06;;;12.29;73.88
11347;BME280;5728;42.722;23.258;2023-04-03T11:57:43;93962.56;;;12.32;74.79
11347;BME280;5728;42.722;23.258;2023-04-03T12:04:08;93958.81;;;12.15;78.08
11347;BME280;5728;42.722;23.258;2023-04-03T12:07:12;93961.13;;;11.98;78.35
11347;BME280;5728;42.722;23.258;2023-04-03T12:10:00;93964.03;;;11.89;78.01
11347;BME280;5728;42.722;23.258;2023-04-03T12:12:30;93961.78;;;12.05;78.86
11347;BME280;5728;42.722;23.258;2023-04-03T12:15:17;93966.63;;;12.15;80.02
11347;BME280;5728;42.722;23.258;2023-04-03T12:17:45;93953.50;;;11.66;81.50
11347;BME280;5728;42.722;23.258;2023-04-03T12:23:29;93942.53;;;11.58;81.97
11347;BME280;5728;42.722;23.258;2023-04-03T12:26:03;93936.53;;;11.56;82.87
11347;BME280;5728;42.722;23.258;2023-04-03T12:28:37;93941.44;;;11.65;83.51
11347;BME280;5728;42.722;23.258;2023-04-03T12:31:08;93934.91;;;11.26;85.21
11347;BME280;5728;42.722;23.258;2023-04-03T12:33:47;93935.78;;;11.26;86.69
11347;BME280;5728;42.722;23.258;2023-04-03T12:36:28;93935.25;;;11.15;86.75
11347;BME280;5728;42.722;23.258;2023-04-03T12:42:09;93924.72;;;10.64;90.93
11347;BME280;5728;42.722;23.258;2023-04-03T12:44:49;93927.88;;;10.74;91.94
11347;BME280;5728;42.722;23.258;2023-04-03T12:47:28;93920.84;;;10.48;93.83
11347;BME280;5728;42.722;23.258;2023-04-03T12:49:59;93915.13;;;10.37;94.07
11347;BME280;5728;42.722;23.258;2023-04-03T12:52:33;93912.88;;;10.25;95.35
11347;BME280;5728;42.722;23.258;2023-04-03T12:55:08;93908.75;;;10.18;96.96
11347;BME280;5728;42.722;23.258;2023-04-03T12:57:43;93908.50;;;9.95;98.07
11347;BME280;5728;42.722;23.258;2023-04-03T13:00:29;93915.13;;;9.74;100.00
11347;BME280;5728;42.722;23.258;2023-04-03T13:02:58;93912.63;;;9.70;100.00
11347;BME280;5728;42.722;23.258;2023-04-03T13:05:25;93916.44;;;9.56;100.00
11347;BME280;5728;42.722;23.258;2023-04-03T13:07:56;93915.34;;;9.65;100.00
11347;BME280;5728;42.722;23.258;2023-04-03T13:10:26;93918.78;;;9.66;100.00
11347;BME280;5728;42.722;23.258;2023-04-03T13:12:54;93914.47;;;9.66;100.00
11347;BME280;5728;42.722;23.258;2023-04-03T13:15:23;93916.88;;;9.72;100.00
11347;BME280;5728;42.722;23.258;2023-04-03T13:17:51;93912.75;;;9.65;100.00
11347;BME280;5728;42.722;23.258;2023-04-03T13:20:21;93907.75;;;9.59;100.00
11347;BME280;5728;42.722;23.258;2023-04-03T13:22:52;93904.97;;;9.65;100.00
11347;BME280;5728;42.722;23.258;2023-04-03T13:25:23;93907.69;;;9.60;100.00
11347;BME280;5728;42.722;23.258;2023-04-03T13:27:52;93909.44;;;9.60;100.00
11347;BME280;5728;42.722;23.258;2023-04-03T13:30:26;93915.03;;;9.43;100.00
11347;BME280;5728;42.722;23.258;2023-04-03T13:32:54;93898.59;;;9.44;100.00
11347;BME280;5728;42.722;23.258;2023-04-03T13:35:30;93904.75;;;9.40;100.00
11347;BME280;5728;42.722;23.258;2023-04-03T13:38:00;93903.16;;;9.36;100.00